Time;durP1;ratioP1;P1;durP2;ratioP2;P2;SDS_P1;SDS_P2;PMS_P1;PMS_P2;Temp;Humidity;BMP_temperature;BMP_pressure;BME280_temperature;BME280_humidity;BME280_pressure;Samples;Min_cycle;Max_cycle;Signal;HPM_P1;HPM_P2
2023/03/21 00:00:46;;;;;;;0.20;0.20;;;;;;;19.38;44.57;101344.03;5096543;28;21876;-37
2023/03/21 00:03:13;;;;;;;0.20;0.20;;;;;;;19.40;44.48;101344.63;5115470;28;20070;-37
2023/03/21 00:05:40;;;;;;;0.20;0.20;;;;;;;19.39;44.30;101348.47;5097434;28;20047;-36
2023/03/21 00:08:07;;;;;;;0.20;0.20;;;;;;;19.39;44.52;101340.19;5097038;28;20043;-37
2023/03/21 00:10:32;;;;;;;0.20;0.20;;;;;;;19.38;44.44;101342.09;5096435;28;20198;-37
2023/03/21 00:13:11;;;;;;;0.20;0.20;;;;;;;19.39;44.46;101338.25;5115215;28;20055;-37
2023/03/21 00:15:49;;;;;;;;;;;;;;;19.39;44.35;101337.44;5097323;28;20039;-37
2023/03/21 00:18:30;;;;;;;0.30;0.30;;;;;;;19.39;44.44;101335.50;5113585;28;19934;-37
2023/03/21 00:21:01;;;;;;;0.30;0.30;;;;;;;19.38;44.47;101328.28;5114657;28;20495;-36
2023/03/21 00:23:47;;;;;;;0.30;0.30;;;;;;;19.38;44.43;101331.06;5088006;27;20054;-37
2023/03/21 00:26:14;;;;;;;0.30;0.30;;;;;;;19.39;44.38;101329.97;5136010;27;20046;-37
2023/03/21 00:28:41;;;;;;;0.30;0.30;;;;;;;19.39;44.44;101320.88;5099470;28;20048;-37
2023/03/21 00:31:07;;;;;;;0.30;0.30;;;;;;;19.39;44.60;101329.97;5075247;28;20142;-37
2023/03/21 00:33:34;;;;;;;0.20;0.20;;;;;;;19.39;44.30;101323.63;5086236;28;20050;-36
2023/03/21 00:36:00;;;;;;;0.20;0.20;;;;;;;19.38;44.54;101316.41;5115191;27;20259;-37
2023/03/21 00:38:31;;;;;;;0.30;0.30;;;;;;;19.38;44.53;101322.78;5108664;28;20066;-37
2023/03/21 00:40:56;;;;;;;0.25;0.25;;;;;;;19.38;44.49;101320.00;5087947;28;20542;-37
2023/03/21 00:43:30;;;;;;;0.30;0.30;;;;;;;19.38;44.34;101322.78;5094211;28;20050;-36
2023/03/21 00:45:57;;;;;;;0.30;0.30;;;;;;;19.37;44.78;101312.84;5095024;28;20415;-37
2023/03/21 00:48:24;;;;;;;0.20;0.20;;;;;;;19.38;44.32;101324.69;5076750;28;20054;-37
2023/03/21 00:50:52;;;;;;;0.30;0.30;;;;;;;19.38;44.61;101308.97;5059275;28;20089;-37
2023/03/21 00:53:19;;;;;;;0.20;0.20;;;;;;;19.38;44.48;101308.97;5075324;28;20058;-36
2023/03/21 00:55:45;;;;;;;0.30;0.30;;;;;;;19.38;44.26;101299.84;5058804;28;20419;-36
2023/03/21 00:58:10;;;;;;;0.30;0.30;;;;;;;19.39;44.39;101298.78;5076415;28;20299;-37
2023/03/21 01:00:36;;;;;;;0.30;0.30;;;;;;;19.38;44.52;101299.84;5076564;28;20048;-37
2023/03/21 01:03:06;;;;;;;0.30;0.30;;;;;;;19.38;44.41;101297.09;5094188;28;20608;-36
2023/03/21 01:06:05;;;;;;;0.30;0.30;;;;;;;19.38;44.44;101294.31;5094506;28;20051;-37
2023/03/21 01:08:34;;;;;;;0.20;0.20;;;;;;;19.38;44.49;101295.16;5078454;28;20052;-36
2023/03/21 01:11:18;;;;;;;0.20;0.20;;;;;;;19.38;44.23;101295.16;5078399;28;20048;-36
2023/03/21 01:13:44;;;;;;;0.30;0.30;;;;;;;19.37;44.54;101292.69;5061105;28;20083;-37
2023/03/21 01:16:23;;;;;;;0.30;0.30;;;;;;;19.38;44.30;101289.63;5081264;28;20051;-37
2023/03/21 01:18:49;;;;;;;0.22;0.22;;;;;;;19.39;44.67;101296.00;5108123;28;20050;-36
2023/03/21 01:21:15;;;;;;;0.20;0.20;;;;;;;19.37;44.37;101287.97;5100284;28;20051;-36
2023/03/21 01:23:42;;;;;;;0.20;0.20;;;;;;;19.39;44.59;101284.97;5133417;27;20086;-37
2023/03/21 01:26:09;;;;;;;0.28;0.28;;;;;;;19.38;44.41;101275.00;5119310;27;20066;-37
2023/03/21 01:28:36;;;;;;;0.20;0.20;;;;;;;19.37;44.37;101279.69;5103975;28;20039;-37
2023/03/21 01:31:03;;;;;;;0.20;0.20;;;;;;;19.38;44.62;101275.81;5061874;28;20058;-36
2023/03/21 01:33:29;;;;;;;0.30;0.30;;;;;;;19.37;44.60;101267.81;5079210;28;20051;-36
2023/03/21 01:35:55;;;;;;;0.30;0.30;;;;;;;19.37;44.53;101274.16;5109131;28;20093;-36
2023/03/21 01:38:37;;;;;;;0.20;0.20;;;;;;;19.37;44.60;101274.16;5101837;28;20050;-37
2023/03/21 01:41:02;;;;;;;0.30;0.30;;;;;;;19.37;44.69;101270.59;5117833;28;20047;-36
2023/03/21 01:43:39;;;;;;;0.30;0.30;;;;;;;19.37;44.52;101270.59;5117575;28;20062;-36
2023/03/21 01:46:19;;;;;;;0.30;0.30;;;;;;;19.37;44.43;101270.59;5118420;27;20134;-36
2023/03/21 01:48:49;;;;;;;0.20;0.20;;;;;;;19.36;44.65;101267.00;5101128;28;20096;-36
2023/03/21 01:51:16;;;;;;;0.30;0.30;;;;;;;19.37;44.66;101263.13;5097429;28;20396;-36
2023/03/21 01:53:41;;;;;;;0.20;0.20;;;;;;;19.36;44.53;101267.00;5097219;28;20399;-37
2023/03/21 01:56:11;;;;;;;0.20;0.20;;;;;;;19.37;44.42;101267.81;5096319;28;20050;-37
2023/03/21 01:58:37;;;;;;;0.20;0.20;;;;;;;19.36;44.34;101261.47;5078224;28;20258;-36
2023/03/21 02:01:04;;;;;;;0.20;0.20;;;;;;;19.37;44.49;101256.78;5097556;28;20044;-37
2023/03/21 02:03:36;;;;;;;0.20;0.20;;;;;;;19.37;44.33;101254.84;5097188;28;20142;-36
2023/03/21 02:06:08;;;;;;;0.30;0.30;;;;;;;19.36;44.64;101246.84;5096643;28;20438;-36
2023/03/21 02:08:34;;;;;;;0.20;0.20;;;;;;;19.36;44.55;101241.31;5097074;28;20097;-36
2023/03/21 02:11:06;;;;;;;0.20;0.20;;;;;;;19.37;44.34;101238.25;5096593;28;20138;-37
2023/03/21 02:13:31;;;;;;;0.20;0.20;;;;;;;19.35;44.33;101240.47;5096599;28;20540;-37
2023/03/21 02:16:01;;;;;;;0.30;0.30;;;;;;;19.36;44.37;101233.84;5096364;28;20081;-37
2023/03/21 02:18:51;;;;;;;0.30;0.30;;;;;;;19.36;44.34;101238.56;5077623;28;20082;-37
2023/03/21 02:21:42;;;;;;;0.30;0.30;;;;;;;19.37;44.37;101234.69;5103512;28;20074;-37
2023/03/21 02:24:35;;;;;;;0.30;0.30;;;;;;;19.37;44.35;101229.97;5121129;27;20441;-36
2023/03/21 02:27:20;;;;;;;0.30;0.30;;;;;;;19.36;44.71;101224.75;5123558;27;20049;-37
2023/03/21 02:30:20;;;;;;;0.30;0.30;;;;;;;19.37;44.48;101226.38;5082012;28;20048;-37
2023/03/21 02:33:17;;;;;;;0.30;0.30;;;;;;;19.35;44.34;101217.56;5082866;28;20503;-37
2023/03/21 02:36:08;;;;;;;0.20;0.20;;;;;;;19.36;44.57;101221.97;5096347;28;20105;-37
2023/03/21 02:38:47;;;;;;;0.22;0.22;;;;;;;19.36;44.57;101216.47;5106921;28;20062;-36
2023/03/21 02:41:52;;;;;;;0.28;0.28;;;;;;;19.35;44.39;101212.03;5098816;28;20104;-36
2023/03/21 02:44:24;;;;;;;0.20;0.20;;;;;;;19.35;44.63;101207.34;5112098;28;20410;-37
2023/03/21 02:46:54;;;;;;;0.30;0.30;;;;;;;19.35;44.36;101218.41;5116608;27;20454;-37
2023/03/21 02:49:46;;;;;;;0.25;0.25;;;;;;;19.35;44.50;101215.63;5100309;28;20071;-36
2023/03/21 02:52:17;;;;;;;0.20;0.20;;;;;;;19.35;44.70;101210.09;5077293;28;20128;-37
2023/03/21 02:55:04;;;;;;;0.20;0.20;;;;;;;19.35;44.58;101201.81;5066510;28;20044;-36
2023/03/21 02:57:31;;;;;;;0.20;0.20;;;;;;;19.35;44.72;101210.09;5077598;28;20044;-36
2023/03/21 03:00:11;;;;;;;0.30;0.30;;;;;;;19.36;44.51;101202.66;5103371;28;20043;-36
2023/03/21 03:02:45;;;;;;;0.20;0.20;;;;;;;19.36;44.26;101206.22;5098824;28;20085;-36
2023/03/21 03:05:28;;;;;;;0.30;0.30;;;;;;;19.35;44.34;101203.75;5081128;28;20043;-37
2023/03/21 03:08:24;;;;;;;0.20;0.20;;;;;;;19.36;44.62;101206.22;5080417;28;20079;-36
2023/03/21 03:11:29;;;;;;;0.20;0.20;;;;;;;19.35;44.54;101204.59;5104546;28;20483;-36
2023/03/21 03:14:15;;;;;;;0.20;0.20;;;;;;;19.35;44.43;101203.75;5116473;28;20035;-36
2023/03/21 03:17:29;;;;;;;0.20;0.20;;;;;;;19.35;44.58;101195.47;5101659;28;20065;-37
2023/03/21 03:20:09;;;;;;;0.30;0.30;;;;;;;19.35;44.65;101181.66;5115907;28;20043;-37
2023/03/21 03:22:56;;;;;;;0.20;0.20;;;;;;;19.35;44.51;101188.00;5116256;27;20556;-37
2023/03/21 03:25:28;;;;;;;0.28;0.28;;;;;;;19.34;44.47;101183.56;5100157;28;20141;-37
2023/03/21 03:28:08;;;;;;;0.20;0.20;;;;;;;19.34;44.49;101178.06;5116189;28;20078;-37
2023/03/21 03:30:35;;;;;;;0.20;0.20;;;;;;;19.34;44.73;101182.75;5080249;28;20304;-37
2023/03/21 03:33:15;;;;;;;0.30;0.30;;;;;;;19.35;44.63;101182.50;5115316;28;20559;-37
2023/03/21 03:35:43;;;;;;;0.20;0.20;;;;;;;19.35;44.45;101184.44;5115382;27;20058;-37
2023/03/21 03:38:13;;;;;;;0.20;0.20;;;;;;;19.35;44.63;101182.50;5116281;28;20486;-36
2023/03/21 03:40:41;;;;;;;0.20;0.20;;;;;;;19.35;44.45;101176.16;5104333;28;20047;-37
2023/03/21 03:43:11;;;;;;;0.30;0.30;;;;;;;19.35;44.50;101176.97;5077116;28;20445;-37
2023/03/21 03:45:43;;;;;;;0.30;0.30;;;;;;;19.35;44.55;101173.38;5099394;28;20170;-37
2023/03/21 03:48:30;;;;;;;0.20;0.20;;;;;;;19.35;44.36;101176.16;5116559;28;20043;-36
2023/03/21 03:51:01;;;;;;;0.30;0.30;;;;;;;19.34;44.53;101167.00;5100770;28;20471;-36
2023/03/21 03:53:35;;;;;;;0.20;0.20;;;;;;;19.35;44.54;101168.69;5115739;28;20051;-37
2023/03/21 03:56:03;;;;;;;0.30;0.30;;;;;;;19.34;44.71;101161.47;5115417;28;20045;-37
2023/03/21 03:58:30;;;;;;;0.20;0.20;;;;;;;19.35;44.44;101156.81;5116122;28;20266;-37
2023/03/21 04:01:10;;;;;;;0.30;0.30;;;;;;;19.34;44.47;101141.31;5116097;28;20078;-36
2023/03/21 04:03:38;;;;;;;0.20;0.20;;;;;;;19.35;44.70;101156.81;5097469;28;20055;-36
2023/03/21 04:06:15;;;;;;;0.90;0.70;;;;;;;19.34;44.47;101150.44;5114826;28;20142;-37
2023/03/21 04:08:41;;;;;;;0.30;0.30;;;;;;;19.35;44.32;101154.06;5097978;28;20039;-37
2023/03/21 04:11:08;;;;;;;0.30;0.30;;;;;;;19.34;44.32;101153.19;5115534;28;20043;-36
2023/03/21 04:13:33;;;;;;;0.30;0.30;;;;;;;19.34;44.84;101147.66;5115602;28;20051;-36
2023/03/21 04:15:59;;;;;;;0.20;0.20;;;;;;;19.34;44.47;101155.13;5115582;28;20099;-36
2023/03/21 04:18:25;;;;;;;0.30;0.30;;;;;;;19.34;44.51;101155.97;5115177;28;20043;-37
2023/03/21 04:20:51;;;;;;;0.30;0.30;;;;;;;19.35;44.53;101159.56;5115430;28;20407;-37
2023/03/21 04:23:19;;;;;;;0.30;0.30;;;;;;;19.35;44.52;101159.56;5115282;27;20043;-37
2023/03/21 04:25:44;;;;;;;0.20;0.20;;;;;;;19.34;44.51;101164.25;5110061;28;20288;-37
2023/03/21 04:28:22;;;;;;;0.20;0.20;;;;;;;19.35;44.26;101159.56;5107214;28;20047;-37
2023/03/21 04:30:48;;;;;;;0.22;0.22;;;;;;;19.34;44.52;101164.25;5094087;28;20054;-36
2023/03/21 04:33:28;;;;;;;0.20;0.20;;;;;;;19.34;44.74;101155.13;5094668;28;20479;-37
2023/03/21 04:35:55;;;;;;;0.20;0.20;;;;;;;19.34;44.50;101161.47;5094865;28;20438;-37
2023/03/21 04:38:22;;;;;;;0.20;0.20;;;;;;;19.33;44.68;101146.03;5094185;28;20134;-36
2023/03/21 04:40:48;;;;;;;0.30;0.30;;;;;;;19.34;44.41;101142.16;5102712;28;20556;-38
2023/03/21 04:43:14;;;;;;;0.30;0.30;;;;;;;19.34;44.77;101144.91;5114871;27;20091;-36
2023/03/21 04:45:39;;;;;;;0.20;0.20;;;;;;;19.35;44.28;101151.28;5114547;27;20066;-37
2023/03/21 04:48:05;;;;;;;0.20;0.20;;;;;;;19.34;44.62;101142.16;5111534;27;20476;-36
2023/03/21 04:50:31;;;;;;;0.30;0.30;;;;;;;19.34;44.47;101139.38;5094901;28;20051;-37
2023/03/21 04:52:56;;;;;;;0.20;0.20;;;;;;;19.34;44.51;101136.63;5094659;28;20044;-37
2023/03/21 04:55:25;;;;;;;0.20;0.20;;;;;;;19.35;44.53;101134.72;5093598;28;20453;-37
2023/03/21 04:57:50;;;;;;;;;;;;;;;19.34;44.60;101133.03;5077010;28;20438;-37
2023/03/21 05:00:16;;;;;;;0.20;0.20;;;;;;;19.33;44.47;101134.16;5095109;28;20359;-37
2023/03/21 05:02:42;;;;;;;0.20;0.20;;;;;;;19.34;44.65;101136.63;5076424;28;20058;-36
2023/03/21 05:05:10;;;;;;;0.22;0.22;;;;;;;19.33;44.72;101123.09;5076432;28;20539;-36
2023/03/21 05:07:38;;;;;;;0.20;0.20;;;;;;;19.34;44.25;101136.63;5093998;28;20040;-36
2023/03/21 05:10:06;;;;;;;0.20;0.20;;;;;;;19.33;44.56;101125.88;5082300;28;20039;-37
2023/03/21 05:12:32;;;;;;;0.30;0.30;;;;;;;19.34;44.61;101135.81;5114766;28;20050;-37
2023/03/21 05:14:57;;;;;;;0.20;0.20;;;;;;;19.33;44.31;101137.75;5114888;28;20115;-37
2023/03/21 05:17:23;;;;;;;0.20;0.20;;;;;;;19.33;44.52;101137.75;5114605;28;20057;-36
2023/03/21 05:19:51;;;;;;;0.20;0.20;;;;;;;19.34;44.70;101135.81;5114100;28;20086;-37
2023/03/21 05:22:18;;;;;;;0.20;0.20;;;;;;;19.33;44.54;101131.38;5107500;27;20273;-37
2023/03/21 05:24:49;;;;;;;0.22;0.22;;;;;;;19.35;44.44;101134.72;5115796;27;20073;-37
2023/03/21 05:27:32;;;;;;;0.30;0.30;;;;;;;19.34;44.64;101127.50;5112118;28;20086;-37
2023/03/21 05:30:06;;;;;;;0.30;0.30;;;;;;;19.34;44.28;101133.88;5094521;27;20086;-36
2023/03/21 05:32:32;;;;;;;0.30;0.30;;;;;;;19.33;44.61;101126.69;5076203;28;20055;-36
2023/03/21 05:34:57;;;;;;;0.20;0.20;;;;;;;19.33;44.48;101125.88;5093900;28;20044;-37
2023/03/21 05:37:23;;;;;;;0.20;0.20;;;;;;;19.34;44.71;101127.50;5094074;28;20043;-36
2023/03/21 05:39:49;;;;;;;0.20;0.20;;;;;;;19.33;44.71;101125.88;5094263;28;20072;-37
2023/03/21 05:42:15;;;;;;;0.30;0.30;;;;;;;19.34;44.33;101130.28;5080070;28;20532;-37
2023/03/21 05:44:41;;;;;;;0.20;0.20;;;;;;;19.33;44.73;101126.69;5111376;28;20442;-37
2023/03/21 05:47:07;;;;;;;0.20;0.20;;;;;;;19.33;44.72;101126.69;5097265;28;20044;-36
2023/03/21 05:49:32;;;;;;;0.30;0.30;;;;;;;19.33;44.30;101126.69;5099909;27;20095;-36
2023/03/21 05:51:58;;;;;;;0.20;0.20;;;;;;;19.33;44.51;101123.94;5106995;28;20047;-37
2023/03/21 05:54:24;;;;;;;0.20;0.20;;;;;;;19.34;44.37;101127.50;5100018;28;20043;-36
2023/03/21 05:56:50;;;;;;;0.20;0.20;;;;;;;19.34;44.44;101130.28;5108558;28;20043;-36
2023/03/21 05:59:15;;;;;;;0.30;0.30;;;;;;;19.33;44.78;101125.88;5104715;28;20047;-37
2023/03/21 06:01:41;;;;;;;0.30;0.30;;;;;;;19.34;44.42;101133.88;5114881;28;20043;-37
2023/03/21 06:04:07;;;;;;;0.30;0.30;;;;;;;19.35;44.80;101129.19;5085985;28;20589;-36
2023/03/21 06:06:33;;;;;;;0.30;0.30;;;;;;;19.33;44.72;101123.09;5099108;28;20050;-36
2023/03/21 06:08:59;;;;;;;0.20;0.20;;;;;;;19.33;44.69;101123.94;5109120;28;20043;-36
2023/03/21 06:11:28;;;;;;;0.20;0.20;;;;;;;19.33;44.40;101123.09;5098333;28;20361;-36
2023/03/21 06:13:54;;;;;;;0.30;0.30;;;;;;;19.31;44.40;101128.91;5108429;27;20071;-37
2023/03/21 06:16:19;;;;;;;0.20;0.20;;;;;;;19.32;44.44;101124.22;5107797;28;20047;-38
2023/03/21 06:18:45;;;;;;;0.20;0.20;;;;;;;19.31;44.56;101126.16;5106162;28;20043;-37
2023/03/21 06:21:11;;;;;;;0.20;0.20;;;;;;;19.33;44.39;101128.63;5108297;27;20043;-37
2023/03/21 06:23:36;;;;;;;0.30;0.30;;;;;;;19.33;44.45;101123.09;5089257;28;20781;-37
2023/03/21 06:26:03;;;;;;;0.30;0.30;;;;;;;19.33;44.87;101134.16;5107811;27;20501;-37
2023/03/21 06:28:28;;;;;;;0.30;0.30;;;;;;;19.33;44.65;101128.63;5110485;27;20604;-36
2023/03/21 06:30:54;;;;;;;0.28;0.28;;;;;;;19.33;44.36;101129.44;5109181;28;20232;-37
2023/03/21 06:33:20;;;;;;;0.30;0.30;;;;;;;19.33;44.38;101134.16;5106445;28;20043;-37
2023/03/21 06:35:54;;;;;;;0.20;0.20;;;;;;;19.33;44.54;101126.69;5079061;28;20048;-37
2023/03/21 06:38:20;;;;;;;0.20;0.20;;;;;;;19.33;44.88;101137.75;5094499;28;20418;-36
2023/03/21 06:40:46;;;;;;;0.20;0.20;;;;;;;19.33;44.53;101129.44;5113550;28;20043;-36
2023/03/21 06:43:12;;;;;;;0.20;0.20;;;;;;;19.33;44.80;101131.38;5107891;28;20089;-37
2023/03/21 06:45:38;;;;;;;0.20;0.20;;;;;;;19.32;44.53;101136.09;5110957;28;20554;-38
2023/03/21 06:48:05;;;;;;;0.20;0.20;;;;;;;19.33;44.38;101134.97;5110527;28;20185;-38
2023/03/21 06:50:34;;;;;;;0.30;0.30;;;;;;;19.33;44.53;101147.97;5091833;28;20047;-37
2023/03/21 06:52:59;;;;;;;0.30;0.30;;;;;;;19.33;44.69;101142.44;5104935;28;20078;-37
2023/03/21 06:55:27;;;;;;;0.30;0.30;;;;;;;19.33;44.48;101137.75;5106920;28;20047;-37
2023/03/21 06:57:54;;;;;;;0.40;0.40;;;;;;;19.33;44.77;101145.19;5083888;28;20052;-36
2023/03/21 07:00:20;;;;;;;0.30;0.30;;;;;;;19.33;44.40;101145.19;5084183;28;20291;-36
2023/03/21 07:02:46;;;;;;;0.30;0.30;;;;;;;19.33;44.74;101147.97;5064034;28;20575;-36
2023/03/21 07:05:16;;;;;;;0.28;0.28;;;;;;;19.38;44.86;101134.97;5078797;28;20072;-36
2023/03/21 07:07:42;;;;;;;0.20;0.20;;;;;;;19.39;44.41;101144.09;5101460;28;20047;-37
2023/03/21 07:10:08;;;;;;;0.30;0.30;;;;;;;19.37;44.52;101138.84;5087274;28;20095;-36
2023/03/21 07:12:34;;;;;;;0.20;0.20;;;;;;;19.37;44.99;101136.09;5082732;28;20070;-36
2023/03/21 07:15:03;;;;;;;0.20;0.20;;;;;;;19.40;44.60;101138.28;5102078;27;20523;-36
2023/03/21 07:17:28;;;;;;;;;;;;;;;19.40;44.73;101126.44;5096714;28;20099;-37
2023/03/21 07:19:54;;;;;;;0.20;0.20;;;;;;;19.38;44.92;101117.56;5103211;27;20699;-37
2023/03/21 07:22:20;;;;;;;0.20;0.20;;;;;;;19.36;44.93;101111.50;5108811;27;20055;-36
2023/03/21 07:24:47;;;;;;;0.30;0.30;;;;;;;19.36;44.60;101115.09;5098242;27;20636;-37
2023/03/21 07:27:24;;;;;;;0.20;0.20;;;;;;;19.35;45.00;101118.97;5101941;28;20047;-37
2023/03/21 07:29:50;;;;;;;0.25;0.25;;;;;;;19.37;44.88;101126.97;5099443;28;20039;-36
2023/03/21 07:32:15;;;;;;;0.20;0.20;;;;;;;19.37;45.02;101124.22;5099436;28;22284;-37
2023/03/21 07:34:41;;;;;;;0.22;0.22;;;;;;;19.37;44.65;101118.69;5103683;28;20045;-36
2023/03/21 07:37:07;;;;;;;0.20;0.20;;;;;;;19.38;44.60;101125.84;5096417;27;20047;-36
2023/03/21 07:39:33;;;;;;;0.20;0.20;;;;;;;19.39;45.01;101119.25;5103027;28;20050;-37
2023/03/21 07:41:59;;;;;;;0.20;0.20;;;;;;;19.38;44.77;101115.63;5100771;27;20091;-36
2023/03/21 07:44:25;;;;;;;0.20;0.20;;;;;;;19.39;44.94;101122.00;5100979;28;20089;-37
2023/03/21 07:46:51;;;;;;;0.30;0.30;;;;;;;19.39;44.87;101127.53;5098549;28;20082;-36
2023/03/21 07:49:17;;;;;;;0.30;0.30;;;;;;;19.40;44.82;101131.94;5102566;28;20041;-37
2023/03/21 07:51:42;;;;;;;0.30;0.30;;;;;;;19.40;44.94;101129.19;5098414;28;20575;-37
2023/03/21 07:54:08;;;;;;;0.25;0.25;;;;;;;19.40;44.73;101127.25;5090700;27;20607;-36
2023/03/21 07:56:35;;;;;;;0.25;0.25;;;;;;;19.41;45.06;101128.06;5084580;27;20078;-37
2023/03/21 07:59:00;;;;;;;0.30;0.30;;;;;;;19.41;44.75;101130.84;5088957;28;20538;-38
2023/03/21 08:01:26;;;;;;;0.20;0.20;;;;;;;19.44;44.81;101138.56;5090120;27;20047;-37
2023/03/21 08:03:52;;;;;;;0.30;0.30;;;;;;;19.43;44.74;101145.19;5076815;27;20427;-37
2023/03/21 08:06:19;;;;;;;0.22;0.22;;;;;;;19.43;44.87;101140.50;5090286;28;20478;-37
2023/03/21 08:08:45;;;;;;;0.28;0.28;;;;;;;19.43;44.71;101137.75;5064380;27;20482;-37
2023/03/21 08:11:11;;;;;;;0.20;0.20;;;;;;;19.43;44.54;101145.19;5082514;27;20071;-36
2023/03/21 08:13:37;;;;;;;0.28;0.28;;;;;;;19.45;44.94;101143.00;5092917;27;20565;-37
2023/03/21 08:16:03;;;;;;;0.30;0.30;;;;;;;19.45;44.62;101148.50;5074225;28;20047;-36
2023/03/21 08:18:28;;;;;;;0.30;0.30;;;;;;;19.45;44.76;101135.53;5094858;27;20284;-37
2023/03/21 08:20:55;;;;;;;0.20;0.20;;;;;;;19.45;44.78;101148.50;5103017;27;20050;-36
2023/03/21 08:23:21;;;;;;;0.20;0.20;;;;;;;19.45;44.86;101149.34;5103403;27;20408;-37
2023/03/21 08:25:51;;;;;;;0.20;0.20;;;;;;;19.45;44.85;101141.06;5100655;27;20564;-37
2023/03/21 08:28:17;;;;;;;0.30;0.30;;;;;;;19.43;44.82;101137.75;5077398;28;20050;-36
2023/03/21 08:30:43;;;;;;;0.28;0.28;;;;;;;19.46;44.85;101145.47;5099182;28;20047;-37
2023/03/21 08:33:09;;;;;;;0.30;0.30;;;;;;;19.47;44.88;101138.84;5100265;27;20043;-37
2023/03/21 08:35:35;;;;;;;0.30;0.30;;;;;;;19.47;44.98;101143.53;5100935;27;20107;-37
2023/03/21 08:38:02;;;;;;;0.30;0.30;;;;;;;19.47;45.19;101136.09;5098634;28;20633;-37
2023/03/21 08:40:27;;;;;;;0.30;0.30;;;;;;;19.46;45.19;101144.63;5097622;28;20046;-37
2023/03/21 08:42:53;;;;;;;0.20;0.20;;;;;;;19.46;45.10;101144.63;5081112;28;20043;-36
2023/03/21 08:45:19;;;;;;;0.30;0.30;;;;;;;19.46;44.78;101141.88;5095791;28;20078;-37
2023/03/21 08:47:45;;;;;;;0.30;0.30;;;;;;;19.46;45.03;101141.88;5103796;28;20228;-36
2023/03/21 08:50:14;;;;;;;0.30;0.30;;;;;;;19.45;44.77;101146.56;5076379;28;20040;-37
2023/03/21 08:52:40;;;;;;;0.20;0.20;;;;;;;19.45;44.73;101141.06;5079486;28;20091;-37
2023/03/21 08:55:06;;;;;;;0.20;0.20;;;;;;;19.46;45.16;101141.88;5077870;28;20059;-37
2023/03/21 08:57:32;;;;;;;0.30;0.30;;;;;;;19.46;45.09;101137.19;5095752;28;20457;-36
2023/03/21 08:59:58;;;;;;;0.30;0.30;;;;;;;19.44;44.73;101133.88;5088821;28;20707;-39
2023/03/21 09:02:23;;;;;;;0.22;0.22;;;;;;;19.45;45.10;101141.06;5096408;27;20792;-37
2023/03/21 09:04:51;;;;;;;0.30;0.30;;;;;;;19.46;44.89;101133.59;5088077;28;20057;-36
2023/03/21 09:07:17;;;;;;;0.20;0.20;;;;;;;19.44;45.00;101136.63;5073537;28;20071;-37
2023/03/21 09:09:43;;;;;;;0.20;0.20;;;;;;;19.44;45.05;101136.63;5086329;27;20484;-37
2023/03/21 09:12:09;;;;;;;0.22;0.22;;;;;;;19.43;45.08;101135.00;5089347;28;20126;-38
2023/03/21 09:14:35;;;;;;;0.20;0.20;;;;;;;19.49;44.87;101136.63;5085819;27;20051;-36
2023/03/21 09:17:01;;;;;;;0.25;0.25;;;;;;;19.48;44.84;101132.22;5097961;28;20047;-37
2023/03/21 09:19:27;;;;;;;0.30;0.30;;;;;;;19.47;44.92;101135.22;5072054;28;20100;-39
2023/03/21 09:21:54;;;;;;;0.30;0.30;;;;;;;19.45;45.04;101141.06;5081993;27;20036;-37
2023/03/21 09:24:20;;;;;;;0.30;0.30;;;;;;;19.44;44.86;101136.63;5091168;27;20079;-37
2023/03/21 09:26:49;;;;;;;0.30;0.30;;;;;;;19.43;44.97;101121.19;5072992;28;20075;-38
2023/03/21 09:29:16;;;;;;;0.30;0.30;;;;;;;19.44;45.02;101125.59;5092877;28;20039;-40
2023/03/21 09:31:42;;;;;;;0.30;0.30;;;;;;;19.43;44.78;101132.22;5083674;28;20054;-38
2023/03/21 09:34:09;;;;;;;0.20;0.20;;;;;;;19.43;45.12;101126.69;5095555;27;20049;-37
2023/03/21 09:36:35;;;;;;;0.30;0.30;;;;;;;19.44;45.21;101124.75;5090277;27;20051;-37
2023/03/21 09:39:02;;;;;;;0.30;0.30;;;;;;;19.43;45.04;101128.63;5071673;27;20680;-37
2023/03/21 09:41:38;;;;;;;0.20;0.20;;;;;;;19.43;45.13;101126.69;5053340;27;20339;-36
2023/03/21 09:44:23;;;;;;;0.20;0.20;;;;;;;19.43;44.87;101128.63;5091320;27;20067;-37
2023/03/21 09:46:52;;;;;;;0.20;0.20;;;;;;;19.44;45.08;101127.53;5091850;28;20067;-38
2023/03/21 09:49:29;;;;;;;0.20;0.20;;;;;;;19.43;44.89;101126.69;5097953;27;20054;-36
2023/03/21 09:51:57;;;;;;;0.30;0.30;;;;;;;19.43;44.72;101131.38;5103268;28;20070;-36
2023/03/21 09:54:26;;;;;;;0.20;0.20;;;;;;;19.43;44.74;101126.69;5067475;28;20074;-39
2023/03/21 09:56:55;;;;;;;0.20;0.20;;;;;;;19.43;45.00;101120.31;5083459;28;20047;-37
2023/03/21 09:59:26;;;;;;;0.20;0.20;;;;;;;19.43;44.72;101114.81;5104103;27;20048;-37
2023/03/21 10:01:54;;;;;;;0.20;0.20;;;;;;;19.43;44.78;101120.31;5103908;27;20299;-37
2023/03/21 10:04:21;;;;;;;0.20;0.20;;;;;;;19.42;44.80;101121.44;5098528;28;20103;-37
2023/03/21 10:06:54;;;;;;;0.20;0.20;;;;;;;19.43;44.82;101114.81;5096977;27;20482;-36
2023/03/21 10:09:21;;;;;;;0.20;0.20;;;;;;;19.42;45.04;101118.69;5082150;28;20075;-37
2023/03/21 10:11:52;;;;;;;0.20;0.20;;;;;;;19.43;45.07;101110.13;5082581;27;20401;-37
2023/03/21 10:14:34;;;;;;;0.20;0.20;;;;;;;19.42;44.87;101102.94;5106604;27;20078;-37
2023/03/21 10:17:22;;;;;;;0.30;0.30;;;;;;;19.41;45.17;101106.81;5104477;27;20039;-37
2023/03/21 10:19:56;;;;;;;0.30;0.30;;;;;;;19.41;44.71;101095.75;5084669;28;20354;-36
2023/03/21 10:22:21;;;;;;;0.20;0.20;;;;;;;19.41;45.03;101090.22;5111343;28;20403;-38
2023/03/21 10:24:47;;;;;;;0.30;0.30;;;;;;;19.42;45.10;101083.59;5110630;28;20618;-37
2023/03/21 10:27:13;;;;;;;0.30;0.30;;;;;;;19.42;44.64;101080.84;5106456;28;20329;-37
2023/03/21 10:29:42;;;;;;;0.30;0.30;;;;;;;19.41;44.79;101073.66;5097283;27;20510;-37
2023/03/21 10:32:10;;;;;;;0.30;0.30;;;;;;;19.41;44.94;101073.66;5099805;28;20101;-37
2023/03/21 10:34:40;;;;;;;0.20;0.20;;;;;;;19.41;44.81;101064.56;5085713;28;20100;-38
2023/03/21 10:37:06;;;;;;;0.25;0.25;;;;;;;19.40;45.07;101054.63;5078289;28;20134;-37
2023/03/21 10:39:38;;;;;;;0.20;0.20;;;;;;;19.40;44.91;101057.38;5085952;27;20408;-37
2023/03/21 10:42:04;;;;;;;0.20;0.20;;;;;;;19.40;45.07;101049.91;5094914;28;20051;-37
2023/03/21 10:44:32;;;;;;;0.20;0.20;;;;;;;19.41;44.87;101050.75;5092910;27;20132;-37
2023/03/21 10:47:04;;;;;;;0.20;0.20;;;;;;;19.40;44.72;101035.28;5074362;28;20528;-37
2023/03/21 10:49:30;;;;;;;0.20;0.20;;;;;;;19.41;44.65;101045.22;5095021;28;20048;-37
2023/03/21 10:52:06;;;;;;;0.30;0.30;;;;;;;19.41;44.83;101039.69;5098813;27;20054;-37
2023/03/21 10:54:34;;;;;;;0.30;0.30;;;;;;;19.42;44.89;101024.78;5082525;27;20043;-37
2023/03/21 10:57:06;;;;;;;0.30;0.30;;;;;;;19.41;44.75;101021.19;5072502;28;20047;-37
2023/03/21 10:59:43;;;;;;;0.20;0.20;;;;;;;19.41;45.05;101025.88;5096244;27;20071;-37
2023/03/21 11:02:17;;;;;;;0.20;0.20;;;;;;;19.42;44.66;101024.78;5092993;27;20525;-36
2023/03/21 11:04:43;;;;;;;0.20;0.20;;;;;;;19.40;45.02;101016.78;5080692;28;20051;-37
2023/03/21 11:07:13;;;;;;;0.20;0.20;;;;;;;19.41;44.74;101017.59;5072955;28;20137;-37
2023/03/21 11:09:53;;;;;;;0.20;0.20;;;;;;;19.40;44.75;101014.00;5084295;28;20422;-37
2023/03/21 11:12:36;;;;;;;0.25;0.25;;;;;;;19.41;44.90;101012.06;5068523;28;20167;-37
2023/03/21 11:15:33;;;;;;;0.20;0.20;;;;;;;19.41;44.73;101015.66;5085159;27;20467;-37
2023/03/21 11:18:11;;;;;;;0.20;0.20;;;;;;;19.41;44.85;101018.44;5062164;27;20107;-37
2023/03/21 11:20:40;;;;;;;;;;;;;;;19.41;44.76;101012.06;5054286;27;20111;-37
2023/03/21 11:23:05;;;;;;;0.20;0.20;;;;;;;19.41;44.99;101012.06;5098806;27;19971;-37
2023/03/21 11:25:36;;;;;;;0.30;0.30;;;;;;;19.41;44.65;101014.84;5098225;27;20048;-36
2023/03/21 11:28:08;;;;;;;0.30;0.30;;;;;;;19.44;45.46;101009.59;5077752;27;20043;-37
2023/03/21 11:30:34;;;;;;;0.30;0.30;;;;;;;19.47;45.71;101011.78;5093459;28;20043;-40
2023/03/21 11:33:02;;;;;;;0.30;0.30;;;;;;;19.46;45.18;101018.41;5072472;28;20265;-40
2023/03/21 11:35:34;;;;;;;0.20;0.20;;;;;;;19.46;45.18;101007.34;5095163;28;20035;-39
2023/03/21 11:38:00;;;;;;;0.30;0.30;;;;;;;19.45;45.38;101004.88;5088379;28;20109;-39
2023/03/21 11:40:28;;;;;;;0.30;0.30;;;;;;;19.45;45.20;101011.22;5092775;27;20503;-39